createdAt,value
2018-08-03T00:00:08.636Z,7.73
2018-08-03T00:02:36.897Z,7.63
2018-08-03T00:05:05.154Z,7.37
2018-08-03T00:07:33.402Z,7.33
2018-08-03T00:10:01.663Z,7.33
2018-08-03T00:12:29.898Z,7.30
2018-08-03T00:14:58.149Z,6.63
2018-08-03T00:17:26.389Z,7.10
2018-08-03T00:19:54.632Z,7.43
2018-08-03T00:22:22.889Z,7.10
2018-08-03T00:24:51.129Z,7.63
2018-08-03T00:27:20.256Z,7.47
2018-08-03T00:29:48.501Z,7.20
2018-08-03T00:32:17.530Z,8.10
2018-08-03T00:34:45.795Z,7.27
2018-08-03T00:37:14.025Z,6.60
2018-08-03T00:39:42.282Z,7.30
2018-08-03T00:42:10.525Z,7.87
2018-08-03T00:44:38.922Z,7.63
2018-08-03T00:47:07.163Z,7.73
2018-08-03T00:49:35.427Z,8.07
2018-08-03T00:52:04.646Z,7.60
2018-08-03T00:54:32.888Z,8.17
2018-08-03T00:57:01.894Z,8.30
2018-08-03T00:59:30.251Z,7.70
2018-08-03T01:01:58.480Z,8.53
2018-08-03T01:04:26.717Z,7.80
2018-08-03T01:06:55.734Z,8.23
2018-08-03T01:09:23.998Z,8.80
2018-08-03T01:11:52.234Z,8.40
2018-08-03T01:14:20.489Z,8.73
2018-08-03T01:16:48.743Z,7.97
2018-08-03T01:19:17.025Z,8.67
2018-08-03T01:21:45.261Z,8.37
2018-08-03T01:24:13.858Z,8.20
2018-08-03T01:26:42.098Z,7.73
2018-08-03T01:29:10.350Z,8.37
2018-08-03T01:31:38.620Z,8.00
2018-08-03T01:34:06.882Z,8.80
2018-08-03T01:36:35.129Z,8.97
2018-08-03T01:39:03.428Z,9.57
2018-08-03T01:41:32.022Z,8.87
2018-08-03T01:44:00.261Z,8.60
2018-08-03T01:46:28.521Z,9.17
2018-08-03T01:48:56.791Z,8.57
2018-08-03T01:51:25.810Z,8.33
2018-08-03T01:53:54.066Z,9.20
2018-08-03T01:56:23.136Z,8.80
2018-08-03T01:58:51.391Z,8.30
2018-08-03T02:01:19.623Z,8.33
2018-08-03T02:03:47.879Z,9.37
2018-08-03T02:06:16.896Z,8.63
2018-08-03T02:08:45.542Z,8.53
2018-08-03T02:11:14.570Z,9.07
2018-08-03T02:13:42.818Z,9.20
2018-08-03T02:16:11.863Z,9.70
2018-08-03T02:18:40.150Z,9.13
2018-08-03T02:21:08.382Z,9.53
2018-08-03T02:23:36.641Z,9.83
2018-08-03T02:26:05.922Z,7.77
2018-08-03T02:28:34.178Z,8.63
2018-08-03T02:31:02.440Z,9.10
2018-08-03T02:33:30.709Z,9.50
2018-08-03T02:35:58.954Z,9.30
2018-08-03T02:38:27.522Z,10.13
2018-08-03T02:40:56.536Z,9.90
2018-08-03T02:43:24.784Z,9.53
2018-08-03T02:45:53.798Z,9.03
2018-08-03T02:48:22.386Z,9.60
2018-08-03T02:50:50.630Z,9.00
2018-08-03T02:53:19.646Z,9.07
2018-08-03T02:55:48.006Z,9.10
2018-08-03T02:58:17.013Z,9.50
2018-08-03T03:00:45.267Z,9.07
2018-08-03T03:03:14.302Z,9.87
2018-08-03T03:05:42.551Z,10.40
2018-08-03T03:08:10.809Z,10.27
2018-08-03T03:10:39.830Z,10.60
2018-08-03T03:13:08.090Z,10.37
2018-08-03T03:15:36.354Z,10.73
2018-08-03T03:18:05.371Z,10.23
2018-08-03T03:20:33.637Z,9.40
2018-08-03T03:23:01.893Z,8.97
2018-08-03T03:25:30.917Z,9.37
2018-08-03T03:27:59.165Z,10.17
2018-08-03T03:30:28.190Z,9.20
2018-08-03T03:32:56.439Z,9.10
2018-08-03T03:35:25.463Z,9.33
2018-08-03T03:37:53.734Z,9.10
2018-08-03T03:40:22.309Z,10.80
2018-08-03T03:42:50.555Z,9.17
2018-08-03T03:45:19.566Z,8.23
2018-08-03T03:47:47.834Z,10.03
2018-08-03T03:50:16.111Z,10.33
2018-08-03T03:52:44.365Z,10.00
2018-08-03T03:55:13.391Z,10.97
2018-08-03T03:57:41.638Z,10.63
2018-08-03T04:00:10.685Z,10.13
2018-08-03T04:02:38.923Z,10.47
2018-08-03T04:05:07.170Z,11.50
2018-08-03T04:07:36.506Z,11.67
2018-08-03T04:10:04.758Z,12.27
2018-08-03T04:12:33.782Z,12.27
2018-08-03T04:15:02.058Z,12.40
2018-08-03T04:17:30.309Z,12.10
2018-08-03T04:19:58.574Z,11.63
2018-08-03T04:22:27.589Z,12.23
2018-08-03T04:24:55.862Z,11.47
2018-08-03T04:27:24.147Z,12.53
2018-08-03T04:29:53.129Z,12.70
2018-08-03T04:32:21.633Z,12.43
2018-08-03T04:34:49.886Z,11.50
2018-08-03T04:37:18.134Z,12.23
2018-08-03T04:39:47.159Z,12.23
2018-08-03T04:42:15.496Z,12.30
2018-08-03T04:44:43.693Z,12.90
2018-08-03T04:47:11.962Z,12.37
2018-08-03T04:49:40.989Z,12.50
2018-08-03T04:52:09.242Z,12.10
2018-08-03T04:54:37.650Z,12.50
2018-08-03T04:57:05.818Z,12.40
2018-08-03T04:59:34.382Z,11.93
2018-08-03T05:02:02.644Z,12.47
2018-08-03T05:04:30.917Z,12.83
2018-08-03T05:06:59.942Z,13.33
2018-08-03T05:09:28.203Z,12.53
2018-08-03T05:11:56.475Z,13.03
2018-08-03T05:14:24.727Z,12.67
2018-08-03T05:16:53.750Z,12.60
2018-08-03T05:19:22.014Z,12.60
2018-08-03T05:21:50.273Z,13.40
2018-08-03T05:24:19.371Z,13.20
2018-08-03T05:26:47.554Z,14.47
2018-08-03T05:29:16.118Z,13.17
2018-08-03T05:31:45.134Z,12.20
2018-08-03T05:34:13.382Z,12.93
2018-08-03T05:36:42.402Z,13.73
2018-08-03T05:39:10.662Z,14.13
2018-08-03T05:41:39.706Z,12.90
2018-08-03T05:44:07.953Z,13.17
2018-08-03T05:46:36.524Z,12.37
2018-08-03T05:49:04.778Z,12.60
2018-08-03T05:51:33.793Z,12.27
2018-08-03T05:54:02.068Z,13.63
2018-08-03T05:56:30.319Z,11.60
2018-08-03T05:58:59.359Z,12.13
2018-08-03T06:01:27.603Z,11.43
2018-08-03T06:03:55.857Z,11.63
2018-08-03T06:06:24.891Z,11.83
2018-08-03T06:08:53.169Z,11.70
2018-08-03T06:11:21.414Z,12.13
2018-08-03T06:13:49.705Z,11.10
2018-08-03T06:16:17.960Z,10.90
2018-08-03T06:18:46.983Z,11.03
2018-08-03T06:21:15.251Z,10.97
2018-08-03T06:23:43.509Z,10.80
2018-08-03T06:26:11.788Z,10.70
2018-08-03T06:28:40.036Z,10.07
2018-08-03T06:31:08.325Z,9.73
2018-08-03T06:33:36.567Z,9.73
2018-08-03T06:36:04.807Z,9.70
2018-08-03T06:38:33.089Z,10.10
2018-08-03T06:41:01.351Z,10.00
2018-08-03T06:43:29.610Z,9.60
2018-08-03T06:45:57.861Z,10.03
2018-08-03T06:48:26.141Z,9.80
2018-08-03T06:50:54.381Z,9.77
2018-08-03T06:53:22.658Z,9.17
2018-08-03T06:55:50.906Z,10.00
2018-08-03T06:58:19.170Z,8.80
2018-08-03T07:00:47.421Z,8.77
2018-08-03T07:03:16.711Z,8.80
2018-08-03T07:05:45.705Z,9.30
2018-08-03T07:08:14.727Z,9.40
2018-08-03T07:10:43.306Z,8.90
2018-08-03T07:13:11.573Z,8.90
2018-08-03T07:15:40.573Z,8.70
2018-08-03T07:18:08.846Z,9.37
2018-08-03T07:20:37.139Z,8.40
2018-08-03T07:23:06.106Z,8.43
2018-08-03T07:25:35.141Z,8.43
2018-08-03T07:28:03.418Z,8.20
2018-08-03T07:30:31.644Z,8.47
2018-08-03T07:33:00.670Z,8.07
2018-08-03T07:35:28.913Z,8.00
2018-08-03T07:37:57.956Z,7.93
2018-08-03T07:40:26.195Z,8.43
2018-08-03T07:42:54.531Z,8.80
2018-08-03T07:45:22.745Z,8.40
2018-08-03T07:47:50.991Z,7.90
2018-08-03T07:50:19.259Z,7.93
2018-08-03T07:52:47.494Z,8.23
2018-08-03T07:55:15.739Z,8.80
2018-08-03T07:57:43.999Z,7.83
2018-08-03T08:00:13.009Z,7.73
2018-08-03T08:02:41.281Z,8.33
2018-08-03T08:05:09.535Z,8.40
2018-08-03T08:07:38.856Z,7.33
2018-08-03T08:10:07.115Z,8.00
2018-08-03T08:12:36.126Z,7.67
2018-08-03T08:15:04.416Z,7.70
2018-08-03T08:17:33.395Z,7.43
2018-08-03T08:20:01.657Z,7.27
2018-08-03T08:22:30.666Z,7.50
2018-08-03T08:24:58.911Z,7.40
2018-08-03T08:27:27.937Z,8.03
2018-08-03T08:29:56.309Z,8.23
2018-08-03T08:32:24.572Z,7.10
2018-08-03T08:34:53.562Z,7.63
2018-08-03T08:37:21.821Z,7.77
2018-08-03T08:39:50.844Z,7.60
2018-08-03T08:42:19.093Z,7.60
2018-08-03T08:44:48.114Z,7.37
2018-08-03T08:47:16.355Z,7.50
2018-08-03T08:49:44.591Z,7.50
2018-08-03T08:52:12.903Z,7.07
2018-08-03T08:54:41.150Z,7.23
2018-08-03T08:57:09.406Z,7.00
2018-08-03T08:59:37.642Z,7.37
2018-08-03T09:02:06.858Z,7.07
2018-08-03T09:04:35.109Z,7.40
2018-08-03T09:07:04.134Z,7.30
2018-08-03T09:09:32.389Z,8.00
2018-08-03T09:12:00.638Z,7.40
2018-08-03T09:14:29.176Z,7.30
2018-08-03T09:16:57.425Z,7.70
2018-08-03T09:19:25.682Z,6.93
2018-08-03T09:21:54.902Z,7.30
2018-08-03T09:24:23.212Z,7.27
2018-08-03T09:26:52.248Z,6.97
2018-08-03T09:29:26.434Z,7.37
2018-08-03T09:32:00.702Z,7.17
2018-08-03T09:34:34.925Z,7.20
2018-08-03T09:37:09.205Z,7.30
2018-08-03T09:39:43.540Z,7.30
2018-08-03T09:42:11.794Z,7.40
2018-08-03T09:44:40.806Z,7.20
2018-08-03T09:47:09.335Z,6.63
2018-08-03T09:49:37.585Z,7.13
2018-08-03T09:52:05.831Z,6.60
2018-08-03T09:54:34.905Z,7.67
2018-08-03T09:57:03.114Z,6.50
2018-08-03T09:59:31.386Z,6.47
2018-08-03T10:01:59.626Z,7.27
2018-08-03T10:04:27.881Z,6.87
2018-08-03T10:06:58.153Z,6.77
2018-08-03T10:09:26.409Z,6.93
2018-08-03T10:11:55.426Z,7.07
2018-08-03T10:14:23.676Z,6.70
2018-08-03T10:16:52.699Z,7.50
2018-08-03T10:19:20.941Z,7.40
2018-08-03T10:21:49.976Z,6.83
2018-08-03T10:24:18.212Z,6.77
2018-08-03T10:26:47.226Z,7.40
2018-08-03T10:29:15.462Z,6.43
2018-08-03T10:31:43.736Z,6.67
2018-08-03T10:34:11.982Z,6.50
2018-08-03T10:36:40.229Z,6.77
2018-08-03T10:39:08.473Z,6.63
2018-08-03T10:41:37.482Z,6.90
2018-08-03T10:44:05.735Z,6.67
2018-08-03T10:46:33.994Z,6.20
2018-08-03T10:49:02.249Z,6.27
2018-08-03T10:51:30.571Z,5.80
2018-08-03T10:53:58.737Z,6.03
2018-08-03T10:56:27.770Z,6.40
2018-08-03T10:58:56.007Z,6.10
2018-08-03T11:01:25.103Z,5.87
2018-08-03T11:03:53.310Z,6.07
2018-08-03T11:06:21.552Z,5.63
2018-08-03T11:08:50.571Z,5.17
2018-08-03T11:11:18.810Z,5.30
2018-08-03T11:13:47.916Z,5.87
2018-08-03T11:16:16.084Z,5.63
2018-08-03T11:18:45.115Z,5.40
2018-08-03T11:21:13.362Z,5.60
2018-08-03T11:23:42.443Z,4.70
2018-08-03T11:26:11.451Z,5.40
2018-08-03T11:28:40.467Z,5.10
2018-08-03T11:31:08.735Z,4.80
2018-08-03T11:33:36.981Z,5.07
2018-08-03T11:36:06.065Z,5.50
2018-08-03T11:38:34.396Z,5.20
2018-08-03T11:41:02.674Z,5.23
2018-08-03T11:43:30.924Z,5.03
2018-08-03T11:45:59.187Z,5.30
2018-08-03T11:48:29.928Z,4.97
2018-08-03T11:50:58.140Z,4.50
2018-08-03T11:53:26.398Z,4.83
2018-08-03T11:55:54.654Z,4.70
2018-08-03T11:58:22.926Z,4.50
2018-08-03T12:00:51.953Z,4.37
2018-08-03T12:03:20.216Z,4.73
2018-08-03T12:05:48.469Z,4.53
2018-08-03T12:08:17.518Z,4.37
2018-08-03T12:10:45.758Z,4.90
2018-08-03T12:13:14.004Z,4.50
2018-08-03T12:15:43.389Z,4.93
2018-08-03T12:18:11.600Z,5.10
2018-08-03T12:20:39.862Z,5.27
2018-08-03T12:23:08.145Z,4.97
2018-08-03T12:25:36.384Z,4.97
2018-08-03T12:28:04.633Z,5.30
2018-08-03T12:30:32.882Z,5.07
2018-08-03T12:33:01.142Z,4.80
2018-08-03T12:35:29.389Z,5.27
2018-08-03T12:37:58.697Z,4.73
2018-08-03T12:40:27.718Z,4.97
2018-08-03T12:42:55.957Z,4.93
2018-08-03T12:45:33.834Z,5.03
2018-08-03T12:47:53.234Z,5.00
2018-08-03T12:50:22.275Z,4.70
2018-08-03T12:52:50.538Z,4.40
2018-08-03T12:55:18.768Z,4.60
2018-08-03T12:57:47.798Z,5.00
2018-08-03T13:00:16.043Z,4.50
2018-08-03T13:02:45.044Z,4.70
2018-08-03T13:05:13.300Z,4.77
2018-08-03T13:07:42.381Z,4.50
2018-08-03T13:10:10.566Z,4.93
2018-08-03T13:12:39.590Z,4.83
2018-08-03T13:15:07.864Z,5.10
2018-08-03T13:17:43.103Z,4.67
2018-08-03T13:20:11.118Z,5.10
2018-08-03T13:22:39.212Z,4.50
2018-08-03T13:25:07.196Z,4.60
2018-08-03T13:27:35.216Z,4.80
2018-08-03T13:30:03.221Z,4.43
2018-08-03T13:32:31.246Z,4.20
2018-08-03T13:34:59.254Z,4.80
2018-08-03T13:37:27.291Z,4.57
2018-08-03T13:39:55.300Z,4.43
2018-08-03T13:42:23.606Z,4.43
2018-08-03T13:44:52.378Z,4.63
2018-08-03T13:47:20.382Z,5.00
2018-08-03T13:49:48.421Z,4.57
2018-08-03T13:52:16.435Z,4.80
2018-08-03T13:54:44.429Z,5.07
2018-08-03T13:57:13.206Z,4.60
2018-08-03T13:59:41.274Z,5.30
2018-08-03T14:02:14.202Z,4.77
2018-08-03T14:04:42.231Z,4.60
2018-08-03T14:07:10.213Z,4.60
2018-08-03T14:09:38.234Z,4.70
2018-08-03T14:12:07.252Z,4.43
2018-08-03T14:14:36.010Z,4.53
2018-08-03T14:17:04.777Z,4.90
2018-08-03T14:19:32.796Z,4.97
2018-08-03T14:22:00.791Z,4.63
2018-08-03T14:24:28.817Z,4.13
2018-08-03T14:26:56.842Z,4.77
2018-08-03T14:29:24.857Z,4.80
2018-08-03T14:31:53.988Z,4.40
2018-08-03T14:36:56.608Z,5.00
2018-08-03T14:39:30.377Z,4.80
2018-08-03T14:42:04.470Z,4.67
2018-08-03T14:44:38.537Z,4.67
2018-08-03T14:47:13.399Z,4.90
2018-08-03T14:49:47.859Z,4.47
2018-08-03T14:52:22.723Z,5.00
2018-08-03T14:54:57.967Z,4.57
2018-08-03T14:57:32.086Z,4.77
2018-08-03T15:00:06.444Z,5.10
2018-08-03T15:02:40.312Z,4.70
2018-08-03T15:05:15.243Z,4.70
2018-08-03T15:07:49.802Z,5.13
2018-08-03T15:10:23.529Z,5.33
2018-08-03T15:12:52.853Z,5.10
2018-08-03T15:15:21.098Z,5.27
2018-08-03T15:17:49.333Z,4.63
2018-08-03T15:20:17.598Z,5.00
2018-08-03T15:22:45.828Z,4.40
2018-08-03T15:25:14.842Z,4.90
2018-08-03T15:27:43.082Z,4.80
2018-08-03T15:30:11.347Z,4.87
2018-08-03T15:32:39.586Z,5.07
2018-08-03T15:35:07.848Z,5.00
2018-08-03T15:37:36.082Z,4.83
2018-08-03T15:40:05.109Z,4.60
2018-08-03T15:42:33.367Z,5.17
2018-08-03T15:45:02.394Z,4.17
2018-08-03T15:47:30.638Z,4.53
2018-08-03T15:49:58.890Z,4.97
2018-08-03T15:52:27.147Z,4.90
2018-08-03T15:54:55.674Z,4.63
2018-08-03T15:57:23.913Z,5.00
2018-08-03T15:59:52.167Z,5.00
2018-08-03T16:02:20.428Z,4.87
2018-08-03T16:04:48.693Z,5.00
2018-08-03T16:07:16.964Z,5.10
2018-08-03T16:09:45.198Z,4.60
2018-08-03T16:12:14.322Z,4.87
2018-08-03T16:14:42.567Z,5.00
2018-08-03T16:17:11.578Z,5.17
2018-08-03T16:19:40.598Z,5.33
2018-08-03T16:22:08.850Z,4.90
2018-08-03T16:24:37.112Z,5.40
2018-08-03T16:27:06.138Z,5.13
2018-08-03T16:29:34.442Z,5.10
2018-08-03T16:32:02.705Z,4.60
2018-08-03T16:34:30.938Z,5.00
2018-08-03T16:36:59.211Z,4.70
2018-08-03T16:39:28.241Z,4.90
2018-08-03T16:41:56.600Z,4.80
2018-08-03T16:44:24.842Z,4.53
2018-08-03T16:46:53.866Z,4.70
2018-08-03T16:49:22.135Z,4.90
2018-08-03T16:51:50.396Z,4.83
2018-08-03T16:54:19.426Z,4.40
2018-08-03T16:56:47.674Z,4.90
2018-08-03T16:59:15.948Z,4.90
2018-08-03T17:01:44.463Z,4.23
2018-08-03T17:04:12.711Z,5.00
2018-08-03T17:06:40.951Z,4.73
2018-08-03T17:09:10.267Z,4.93
2018-08-03T17:11:45.239Z,4.70
2018-08-03T17:14:19.493Z,5.03
2018-08-03T17:16:53.783Z,4.70
2018-08-03T17:19:28.102Z,4.63
2018-08-03T17:22:02.489Z,5.00
2018-08-03T17:24:36.797Z,4.57
2018-08-03T17:27:11.150Z,5.20
2018-08-03T17:29:46.238Z,4.90
2018-08-03T17:32:20.361Z,4.70
2018-08-03T17:34:54.674Z,4.53
2018-08-03T17:37:29.001Z,4.60
2018-08-03T17:40:03.214Z,4.40
2018-08-03T17:42:38.300Z,4.33
2018-08-03T17:45:12.538Z,4.33
2018-08-03T17:47:46.811Z,4.53
2018-08-03T17:50:21.835Z,4.70
2018-08-03T17:52:55.991Z,5.20
2018-08-03T17:55:30.479Z,4.73
2018-08-03T17:58:04.590Z,4.80
2018-08-03T18:00:38.898Z,4.70
2018-08-03T18:03:13.167Z,4.80
2018-08-03T18:05:47.442Z,4.70
2018-08-03T18:08:21.796Z,5.00
2018-08-03T18:10:56.094Z,5.10
2018-08-03T18:13:30.343Z,4.90
2018-08-03T18:16:04.878Z,4.80
2018-08-03T18:18:38.987Z,5.10
2018-08-03T18:21:13.293Z,4.87
2018-08-03T18:23:47.559Z,5.07
2018-08-03T18:26:22.577Z,5.37
2018-08-03T18:28:56.855Z,5.07
2018-08-03T18:31:31.074Z,4.93
2018-08-03T18:34:05.332Z,5.30
2018-08-03T18:36:39.552Z,5.40
2018-08-03T18:39:13.847Z,4.90
2018-08-03T18:41:48.042Z,5.53
2018-08-03T18:44:22.295Z,5.90
2018-08-03T18:46:57.329Z,5.20
2018-08-03T18:49:31.831Z,5.20
2018-08-03T18:52:06.087Z,5.37
2018-08-03T18:54:41.107Z,5.27
2018-08-03T18:57:16.081Z,5.20
2018-08-03T18:59:50.583Z,5.47
2018-08-03T19:02:24.818Z,5.90
2018-08-03T19:04:59.069Z,5.67
2018-08-03T19:07:33.298Z,5.70
2018-08-03T19:10:07.627Z,5.40
2018-08-03T19:12:41.791Z,5.23
2018-08-03T19:15:16.014Z,5.13
2018-08-03T19:17:50.253Z,4.97
2018-08-03T19:20:24.647Z,5.47
2018-08-03T19:22:58.825Z,5.37
2018-08-03T19:25:33.855Z,6.20
2018-08-03T19:28:08.875Z,5.60
2018-08-03T19:30:43.209Z,5.97
2018-08-03T19:33:17.460Z,5.53
2018-08-03T19:35:51.703Z,5.13
2018-08-03T19:38:26.694Z,5.77
2018-08-03T19:40:54.715Z,5.60
2018-08-03T19:43:23.129Z,6.13
2018-08-03T19:45:52.136Z,5.83
2018-08-03T19:48:20.582Z,5.63
2018-08-03T19:50:48.782Z,6.00
2018-08-03T19:53:17.045Z,6.07
2018-08-03T19:55:46.203Z,5.70
2018-08-03T19:58:14.456Z,6.20
2018-08-03T20:00:42.706Z,5.97
2018-08-03T20:03:10.974Z,5.83
2018-08-03T20:05:39.998Z,5.87
2018-08-03T20:08:08.243Z,6.10
2018-08-03T20:10:36.501Z,5.93
2018-08-03T20:13:05.523Z,5.90
2018-08-03T20:15:33.773Z,6.23
2018-08-03T20:18:02.803Z,5.73
2018-08-03T20:20:31.061Z,5.53
2018-08-03T20:22:59.363Z,5.70
2018-08-03T20:25:27.635Z,6.37
2018-08-03T20:27:55.904Z,6.00
2018-08-03T20:30:24.156Z,6.20
2018-08-03T20:32:53.167Z,6.53
2018-08-03T20:35:21.432Z,6.47
2018-08-03T20:37:49.687Z,6.10
2018-08-03T20:40:18.710Z,6.37
2018-08-03T20:42:46.990Z,6.23
2018-08-03T20:45:15.238Z,6.10
2018-08-03T20:47:44.238Z,5.87
2018-08-03T20:50:12.499Z,6.33
2018-08-03T20:52:40.926Z,6.90
2018-08-03T20:55:09.177Z,6.27
2018-08-03T20:57:37.422Z,6.70
2018-08-03T21:00:06.463Z,5.83
2018-08-03T21:02:34.706Z,7.07
2018-08-03T21:05:03.120Z,6.30
2018-08-03T21:07:31.373Z,7.00
2018-08-03T21:09:59.622Z,6.50
2018-08-03T21:12:28.645Z,6.13
2018-08-03T21:14:56.896Z,6.70
2018-08-03T21:17:25.907Z,6.63
2018-08-03T21:19:54.183Z,6.37
2018-08-03T21:22:23.193Z,6.90
2018-08-03T21:24:51.438Z,6.03
2018-08-03T21:27:19.697Z,6.87
2018-08-03T21:29:48.706Z,6.57
2018-08-03T21:32:16.982Z,6.77
2018-08-03T21:34:45.226Z,7.17
2018-08-03T21:37:14.258Z,6.73
2018-08-03T21:39:42.765Z,6.47
2018-08-03T21:42:10.998Z,7.10
2018-08-03T21:44:39.243Z,7.20
2018-08-03T21:47:07.501Z,6.50
2018-08-03T21:49:35.737Z,6.63
2018-08-03T21:52:03.994Z,6.73
2018-08-03T21:54:32.254Z,6.37
2018-08-03T21:57:01.432Z,7.10
2018-08-03T21:59:29.653Z,6.70
2018-08-03T22:01:57.951Z,6.87
2018-08-03T22:04:27.172Z,6.60
2018-08-03T22:06:55.415Z,6.50
2018-08-03T22:09:23.662Z,6.77
2018-08-03T22:11:52.685Z,6.90
2018-08-03T22:14:20.934Z,7.27
2018-08-03T22:16:49.181Z,7.07
2018-08-03T22:19:17.457Z,6.83
2018-08-03T22:21:45.709Z,6.90
2018-08-03T22:24:13.984Z,7.43
2018-08-03T22:26:42.205Z,6.90
2018-08-03T22:29:10.460Z,7.17
2018-08-03T22:31:38.720Z,7.87
2018-08-03T22:34:06.961Z,7.37
2018-08-03T22:36:35.210Z,8.10
2018-08-03T22:39:03.458Z,7.60
2018-08-03T22:41:32.483Z,7.40
2018-08-03T22:44:00.726Z,7.43
2018-08-03T22:46:29.729Z,7.60
2018-08-03T22:48:58.863Z,7.57
2018-08-03T22:51:27.089Z,7.23
2018-08-03T22:53:56.110Z,7.37
2018-08-03T22:56:24.370Z,7.40
2018-08-03T22:58:53.369Z,7.57
2018-08-03T23:01:21.793Z,7.37
2018-08-03T23:03:50.042Z,7.57
2018-08-03T23:06:18.278Z,7.07
2018-08-03T23:08:47.300Z,7.27
2018-08-03T23:11:15.555Z,7.50
2018-08-03T23:13:44.561Z,7.37
2018-08-03T23:16:12.795Z,8.00
2018-08-03T23:18:41.054Z,7.33
2018-08-03T23:21:09.302Z,7.87
2018-08-03T23:23:37.566Z,7.73
2018-08-03T23:26:05.841Z,7.80
2018-08-03T23:28:34.081Z,7.80
2018-08-03T23:31:02.386Z,7.13
2018-08-03T23:33:30.629Z,7.37
2018-08-03T23:35:58.874Z,7.80
2018-08-03T23:38:27.482Z,7.70
2018-08-03T23:40:56.514Z,8.10
2018-08-03T23:43:24.753Z,8.50
2018-08-03T23:45:53.009Z,7.43
2018-08-03T23:48:21.387Z,8.00
2018-08-03T23:50:49.613Z,7.27
2018-08-03T23:53:17.873Z,7.43
2018-08-03T23:55:46.869Z,7.30
2018-08-03T23:58:15.129Z,8.33
